sensor_id;sensor_type;location;lat;lon;timestamp;pressure;altitude;pressure_sealevel;temperature;humidity
62725;BME280;49026;52.600;4.694;2023-02-02T00:01:46;102077.84;;;7.03;91.73
62725;BME280;49026;52.600;4.694;2023-02-02T00:04:17;102090.00;;;7.03;90.95
62725;BME280;49026;52.600;4.694;2023-02-02T00:06:43;102094.38;;;7.02;91.19
62725;BME280;49026;52.600;4.694;2023-02-02T00:09:11;102096.13;;;7.00;91.52
62725;BME280;49026;52.600;4.694;2023-02-02T00:11:42;102087.41;;;7.00;90.79
62725;BME280;49026;52.600;4.694;2023-02-02T00:14:08;102096.13;;;7.00;90.85
62725;BME280;49026;52.600;4.694;2023-02-02T00:16:39;102108.34;;;6.98;91.38
62725;BME280;49026;52.600;4.694;2023-02-02T00:19:11;102092.66;;;6.98;91.02
62725;BME280;49026;52.600;4.694;2023-02-02T00:21:37;102080.47;;;6.99;91.38
62725;BME280;49026;52.600;4.694;2023-02-02T00:24:04;102093.53;;;6.94;91.04
62725;BME280;49026;52.600;4.694;2023-02-02T00:26:29;102106.63;;;6.93;91.07
62725;BME280;49026;52.600;4.694;2023-02-02T00:28:55;102079.63;;;6.94;91.10
62725;BME280;49026;52.600;4.694;2023-02-02T00:31:21;102087.47;;;6.89;91.26
62725;BME280;49026;52.600;4.694;2023-02-02T00:33:48;102099.69;;;6.84;91.17
62725;BME280;49026;52.600;4.694;2023-02-02T00:36:14;102079.72;;;6.77;91.03
62725;BME280;49026;52.600;4.694;2023-02-02T00:38:40;102101.47;;;6.74;90.73
62725;BME280;49026;52.600;4.694;2023-02-02T00:41:05;102084.09;;;6.72;91.22
62725;BME280;49026;52.600;4.694;2023-02-02T00:43:31;102092.78;;;6.71;91.10
62725;BME280;49026;52.600;4.694;2023-02-02T00:45:56;102069.28;;;6.71;90.77
62725;BME280;49026;52.600;4.694;2023-02-02T00:48:22;102083.19;;;6.73;90.91
62725;BME280;49026;52.600;4.694;2023-02-02T00:50:50;102095.41;;;6.71;90.91
62725;BME280;49026;52.600;4.694;2023-02-02T00:53:15;102097.16;;;6.70;91.45
62725;BME280;49026;52.600;4.694;2023-02-02T00:55:41;102091.03;;;6.73;91.16
62725;BME280;49026;52.600;4.694;2023-02-02T00:58:08;102097.09;;;6.73;90.85
62725;BME280;49026;52.600;4.694;2023-02-02T01:00:36;102086.66;;;6.73;91.20
62725;BME280;49026;52.600;4.694;2023-02-02T01:03:08;102099.72;;;6.75;91.03
62725;BME280;49026;52.600;4.694;2023-02-02T01:05:33;102091.03;;;6.76;91.63
62725;BME280;49026;52.600;4.694;2023-02-02T01:07:59;102077.97;;;6.76;90.68
62725;BME280;49026;52.600;4.694;2023-02-02T01:10:25;102091.00;;;6.77;90.87
62725;BME280;49026;52.600;4.694;2023-02-02T01:12:51;102097.09;;;6.78;90.86
62725;BME280;49026;52.600;4.694;2023-02-02T01:15:16;102102.38;;;6.72;91.25
62725;BME280;49026;52.600;4.694;2023-02-02T01:17:44;102101.53;;;6.62;90.65
62725;BME280;49026;52.600;4.694;2023-02-02T01:20:15;102098.06;;;6.54;91.33
62725;BME280;49026;52.600;4.694;2023-02-02T01:22:41;102102.44;;;6.47;90.72
62725;BME280;49026;52.600;4.694;2023-02-02T01:25:08;102103.31;;;6.41;90.90
62725;BME280;49026;52.600;4.694;2023-02-02T01:27:34;102087.69;;;6.38;90.96
62725;BME280;49026;52.600;4.694;2023-02-02T01:29:59;102104.22;;;6.36;91.27
62725;BME280;49026;52.600;4.694;2023-02-02T01:32:26;102096.38;;;6.33;91.87
62725;BME280;49026;52.600;4.694;2023-02-02T01:34:54;102097.28;;;6.32;91.56
62725;BME280;49026;52.600;4.694;2023-02-02T01:37:20;102097.28;;;6.27;91.79
62725;BME280;49026;52.600;4.694;2023-02-02T01:39:46;102092.06;;;6.25;91.79
62725;BME280;49026;52.600;4.694;2023-02-02T01:42:15;102099.03;;;6.23;91.42
62725;BME280;49026;52.600;4.694;2023-02-02T01:45:22;102095.53;;;6.23;92.18
62725;BME280;49026;52.600;4.694;2023-02-02T01:47:52;102097.28;;;6.22;91.40
62725;BME280;49026;52.600;4.694;2023-02-02T01:50:20;102094.66;;;6.22;92.08
62725;BME280;49026;52.600;4.694;2023-02-02T01:52:48;102096.41;;;6.22;92.08
62725;BME280;49026;52.600;4.694;2023-02-02T01:55:18;102092.06;;;6.22;92.32
62725;BME280;49026;52.600;4.694;2023-02-02T01:57:55;102095.53;;;6.21;92.05
62725;BME280;49026;52.600;4.694;2023-02-02T02:00:21;102091.19;;;6.22;92.16
62725;BME280;49026;52.600;4.694;2023-02-02T02:02:53;102082.47;;;6.23;91.88
62725;BME280;49026;52.600;4.694;2023-02-02T02:05:22;102086.84;;;6.22;92.09
62725;BME280;49026;52.600;4.694;2023-02-02T02:07:53;102081.63;;;6.22;91.99
62725;BME280;49026;52.600;4.694;2023-02-02T02:10:22;102072.91;;;6.23;92.24
62725;BME280;49026;52.600;4.694;2023-02-02T02:12:48;102065.94;;;6.27;92.27
62725;BME280;49026;52.600;4.694;2023-02-02T02:15:13;102058.97;;;6.27;91.86
62725;BME280;49026;52.600;4.694;2023-02-02T02:18:23;102068.56;;;6.30;92.17
62725;BME280;49026;52.600;4.694;2023-02-02T02:21:04;102076.38;;;6.30;92.61
62725;BME280;49026;52.600;4.694;2023-02-02T02:38:51;102072.03;;;6.27;93.48
62725;BME280;49026;52.600;4.694;2023-02-02T02:41:23;102074.63;;;6.27;92.79
62725;BME280;49026;52.600;4.694;2023-02-02T02:43:59;102077.25;;;6.27;93.23
62725;BME280;49026;52.600;4.694;2023-02-02T02:46:25;102072.88;;;6.29;93.43
62725;BME280;49026;52.600;4.694;2023-02-02T02:48:52;102069.41;;;6.32;93.64
62725;BME280;49026;52.600;4.694;2023-02-02T02:51:50;102078.97;;;6.35;93.34
62725;BME280;49026;52.600;4.694;2023-02-02T02:54:34;102091.16;;;6.36;94.13
62725;BME280;49026;52.600;4.694;2023-02-02T03:00:01;102100.75;;;6.37;93.88
62725;BME280;49026;52.600;4.694;2023-02-02T03:02:46;102092.00;;;6.35;93.33
62725;BME280;49026;52.600;4.694;2023-02-02T03:05:25;102094.63;;;6.36;93.32
62725;BME280;49026;52.600;4.694;2023-02-02T03:08:12;102088.53;;;6.34;93.55
62725;BME280;49026;52.600;4.694;2023-02-02T03:10:45;102099.00;;;6.33;93.32
62725;BME280;49026;52.600;4.694;2023-02-02T03:13:14;102088.53;;;6.33;93.29
62725;BME280;49026;52.600;4.694;2023-02-02T03:15:41;102092.06;;;6.32;93.52
62725;BME280;49026;52.600;4.694;2023-02-02T03:18:07;102088.53;;;6.33;93.88
62725;BME280;49026;52.600;4.694;2023-02-02T03:20:33;102085.94;;;6.31;93.64
62725;BME280;49026;52.600;4.694;2023-02-02T03:22:58;102083.31;;;6.33;93.75
62725;BME280;49026;52.600;4.694;2023-02-02T03:25:24;102086.78;;;6.38;94.19
62725;BME280;49026;52.600;4.694;2023-02-02T03:27:49;102078.97;;;6.38;94.23
62725;BME280;49026;52.600;4.694;2023-02-02T03:30:15;102069.41;;;6.37;94.23
62725;BME280;49026;52.600;4.694;2023-02-02T03:32:41;102065.03;;;6.40;93.60
62725;BME280;49026;52.600;4.694;2023-02-02T03:35:07;102074.59;;;6.43;93.89
62725;BME280;49026;52.600;4.694;2023-02-02T03:37:35;102083.31;;;6.45;93.94
62725;BME280;49026;52.600;4.694;2023-02-02T03:40:00;102078.94;;;6.50;93.97
62725;BME280;49026;52.600;4.694;2023-02-02T03:42:28;102084.16;;;6.52;93.97
62725;BME280;49026;52.600;4.694;2023-02-02T03:44:53;102081.50;;;6.55;94.11
62725;BME280;49026;52.600;4.694;2023-02-02T03:47:20;102049.31;;;6.56;94.01
62725;BME280;49026;52.600;4.694;2023-02-02T03:49:46;102062.38;;;6.57;94.34
62725;BME280;49026;52.600;4.694;2023-02-02T03:52:11;102072.81;;;6.59;94.00
62725;BME280;49026;52.600;4.694;2023-02-02T03:54:36;102073.66;;;6.61;93.80
62725;BME280;49026;52.600;4.694;2023-02-02T03:57:04;102074.53;;;6.61;93.99
62725;BME280;49026;52.600;4.694;2023-02-02T03:59:29;102057.13;;;6.63;93.74
62725;BME280;49026;52.600;4.694;2023-02-02T04:01:54;102073.66;;;6.65;93.71
62725;BME280;49026;52.600;4.694;2023-02-02T04:04:23;102077.13;;;6.67;93.10
62725;BME280;49026;52.600;4.694;2023-02-02T04:06:48;102076.25;;;6.68;93.15
62725;BME280;49026;52.600;4.694;2023-02-02T04:09:13;102077.97;;;6.70;93.40
62725;BME280;49026;52.600;4.694;2023-02-02T04:11:39;102088.41;;;6.73;93.93
62725;BME280;49026;52.600;4.694;2023-02-02T04:14:04;102089.28;;;6.75;93.31
62725;BME280;49026;52.600;4.694;2023-02-02T04:16:29;102102.34;;;6.75;94.01
62725;BME280;49026;52.600;4.694;2023-02-02T04:18:58;102098.84;;;6.76;94.12
62725;BME280;49026;52.600;4.694;2023-02-02T04:21:24;102100.59;;;6.78;93.81
62725;BME280;49026;52.600;4.694;2023-02-02T04:23:51;102084.88;;;6.80;93.60
62725;BME280;49026;52.600;4.694;2023-02-02T04:26:16;102086.63;;;6.81;93.55
62725;BME280;49026;52.600;4.694;2023-02-02T04:28:42;102075.34;;;6.80;93.22
62725;BME280;49026;52.600;4.694;2023-02-02T04:31:07;102092.72;;;6.80;93.27
62725;BME280;49026;52.600;4.694;2023-02-02T04:33:33;102091.00;;;6.82;93.56
62725;BME280;49026;52.600;4.694;2023-02-02T04:35:58;102087.50;;;6.84;93.55
62725;BME280;49026;52.600;4.694;2023-02-02T04:38:23;102091.84;;;6.84;92.78
62725;BME280;49026;52.600;4.694;2023-02-02T04:40:49;102084.88;;;6.83;93.69
62725;BME280;49026;52.600;4.694;2023-02-02T04:43:19;102096.22;;;6.83;93.29
62725;BME280;49026;52.600;4.694;2023-02-02T04:45:44;102091.00;;;6.82;93.79
62725;BME280;49026;52.600;4.694;2023-02-02T04:48:11;102093.63;;;6.80;92.66
62725;BME280;49026;52.600;4.694;2023-02-02T04:50:37;102073.56;;;6.81;93.39
62725;BME280;49026;52.600;4.694;2023-02-02T04:53:03;102086.66;;;6.78;93.46
62725;BME280;49026;52.600;4.694;2023-02-02T04:55:28;102090.16;;;6.77;93.44
62725;BME280;49026;52.600;4.694;2023-02-02T04:57:54;102096.25;;;6.74;93.34
62725;BME280;49026;52.600;4.694;2023-02-02T05:00:19;102098.88;;;6.73;93.71
62725;BME280;49026;52.600;4.694;2023-02-02T05:02:44;102092.78;;;6.71;94.00
62725;BME280;49026;52.600;4.694;2023-02-02T05:05:12;102104.97;;;6.72;94.01
62725;BME280;49026;52.600;4.694;2023-02-02T05:07:38;102090.16;;;6.74;93.98
62725;BME280;49026;52.600;4.694;2023-02-02T05:10:09;102101.47;;;6.71;93.06
62725;BME280;49026;52.600;4.694;2023-02-02T05:12:34;102102.38;;;6.70;93.07
62725;BME280;49026;52.600;4.694;2023-02-02T05:14:59;102103.25;;;6.69;93.73
62725;BME280;49026;52.600;4.694;2023-02-02T05:17:26;102104.09;;;6.71;93.55
62725;BME280;49026;52.600;4.694;2023-02-02T05:19:52;102100.63;;;6.71;93.09
62725;BME280;49026;52.600;4.694;2023-02-02T05:22:17;102102.38;;;6.68;93.06
62725;BME280;49026;52.600;4.694;2023-02-02T05:24:42;102117.16;;;6.68;93.03
62725;BME280;49026;52.600;4.694;2023-02-02T05:27:07;102104.09;;;6.66;93.60
62725;BME280;49026;52.600;4.694;2023-02-02T05:29:33;102108.47;;;6.63;93.96
62725;BME280;49026;52.600;4.694;2023-02-02T05:31:58;102115.44;;;6.61;93.24
62725;BME280;49026;52.600;4.694;2023-02-02T05:34:23;102117.22;;;6.59;93.28
62725;BME280;49026;52.600;4.694;2023-02-02T05:36:49;102118.97;;;6.55;94.08
62725;BME280;49026;52.600;4.694;2023-02-02T05:39:14;102118.06;;;6.53;93.83
62725;BME280;49026;52.600;4.694;2023-02-02T05:41:40;102116.34;;;6.54;94.06
62725;BME280;49026;52.600;4.694;2023-02-02T05:44:05;102114.59;;;6.54;93.93
62725;BME280;49026;52.600;4.694;2023-02-02T05:46:31;102110.22;;;6.58;93.90
62725;BME280;49026;52.600;4.694;2023-02-02T05:48:56;102116.34;;;6.55;94.01
62725;BME280;49026;52.600;4.694;2023-02-02T05:51:31;102116.34;;;6.55;94.12
62725;BME280;49026;52.600;4.694;2023-02-02T05:53:58;102119.81;;;6.54;93.68
62725;BME280;49026;52.600;4.694;2023-02-02T05:56:26;102119.81;;;6.51;93.97
62725;BME280;49026;52.600;4.694;2023-02-02T05:58:51;102118.06;;;6.53;93.23
62725;BME280;49026;52.600;4.694;2023-02-02T06:01:17;102121.59;;;6.51;93.99
62725;BME280;49026;52.600;4.694;2023-02-02T06:03:45;102120.72;;;6.50;94.16
62725;BME280;49026;52.600;4.694;2023-02-02T06:06:11;102141.63;;;6.50;93.95
62725;BME280;49026;52.600;4.694;2023-02-02T06:08:36;102130.28;;;6.49;94.05
62725;BME280;49026;52.600;4.694;2023-02-02T06:11:13;102132.88;;;6.49;93.76
62725;BME280;49026;52.600;4.694;2023-02-02T06:13:39;102134.63;;;6.49;93.94
62725;BME280;49026;52.600;4.694;2023-02-02T06:16:08;102137.25;;;6.49;93.77
62725;BME280;49026;52.600;4.694;2023-02-02T06:18:34;102139.84;;;6.49;94.27
62725;BME280;49026;52.600;4.694;2023-02-02T06:21:04;102139.84;;;6.49;93.53
62725;BME280;49026;52.600;4.694;2023-02-02T06:23:31;102135.50;;;6.48;93.74
62725;BME280;49026;52.600;4.694;2023-02-02T06:25:59;102151.16;;;6.49;94.05
62725;BME280;49026;52.600;4.694;2023-02-02T06:28:25;102149.44;;;6.50;94.50
62725;BME280;49026;52.600;4.694;2023-02-02T06:30:53;102149.44;;;6.50;94.28
62725;BME280;49026;52.600;4.694;2023-02-02T06:33:18;102145.94;;;6.49;94.14
62725;BME280;49026;52.600;4.694;2023-02-02T06:35:46;102140.72;;;6.48;93.89
62725;BME280;49026;52.600;4.694;2023-02-02T06:38:11;102147.69;;;6.49;93.88
62725;BME280;49026;52.600;4.694;2023-02-02T06:40:36;102141.63;;;6.48;93.97
62725;BME280;49026;52.600;4.694;2023-02-02T06:43:02;102139.84;;;6.52;94.48
62725;BME280;49026;52.600;4.694;2023-02-02T06:45:29;102144.19;;;6.53;94.64
62725;BME280;49026;52.600;4.694;2023-02-02T06:47:57;102154.63;;;6.53;94.67
62725;BME280;49026;52.600;4.694;2023-02-02T06:50:25;102139.84;;;6.54;94.21
62725;BME280;49026;52.600;4.694;2023-02-02T06:52:51;102152.91;;;6.55;94.34
62725;BME280;49026;52.600;4.694;2023-02-02T06:55:17;102153.78;;;6.56;94.44
62725;BME280;49026;52.600;4.694;2023-02-02T06:57:43;102172.91;;;6.58;94.64
62725;BME280;49026;52.600;4.694;2023-02-02T07:00:12;102178.13;;;6.61;94.78
62725;BME280;49026;52.600;4.694;2023-02-02T07:02:45;102181.59;;;6.63;95.14
62725;BME280;49026;52.600;4.694;2023-02-02T07:05:11;102184.22;;;6.67;94.52
62725;BME280;49026;52.600;4.694;2023-02-02T07:07:39;102193.81;;;6.65;94.91
62725;BME280;49026;52.600;4.694;2023-02-02T07:10:04;102191.19;;;6.68;95.00
62725;BME280;49026;52.600;4.694;2023-02-02T07:12:29;102206.88;;;6.68;94.81
62725;BME280;49026;52.600;4.694;2023-02-02T07:14:55;102189.44;;;6.67;95.14
62725;BME280;49026;52.600;4.694;2023-02-02T07:17:20;102206.88;;;6.68;94.64
62725;BME280;49026;52.600;4.694;2023-02-02T07:19:46;102199.88;;;6.69;94.69
62725;BME280;49026;52.600;4.694;2023-02-02T07:22:11;102209.47;;;6.68;94.96
62725;BME280;49026;52.600;4.694;2023-02-02T07:24:36;102213.81;;;6.68;94.69
62725;BME280;49026;52.600;4.694;2023-02-02T07:27:04;102217.31;;;6.68;94.44
62725;BME280;49026;52.600;4.694;2023-02-02T07:29:32;102225.16;;;6.67;95.06
62725;BME280;49026;52.600;4.694;2023-02-02T07:31:57;102237.31;;;6.70;94.97
62725;BME280;49026;52.600;4.694;2023-02-02T07:34:23;102222.53;;;6.68;95.01
62725;BME280;49026;52.600;4.694;2023-02-02T07:36:50;102237.31;;;6.70;95.18
62725;BME280;49026;52.600;4.694;2023-02-02T07:39:16;102216.41;;;6.70;94.61
62725;BME280;49026;52.600;4.694;2023-02-02T07:41:41;102235.59;;;6.70;94.12
62725;BME280;49026;52.600;4.694;2023-02-02T07:44:14;102232.09;;;6.71;94.96
62725;BME280;49026;52.600;4.694;2023-02-02T07:46:44;102231.22;;;6.71;94.66
62725;BME280;49026;52.600;4.694;2023-02-02T07:49:12;102234.72;;;6.73;94.81
62725;BME280;49026;52.600;4.694;2023-02-02T07:51:38;102219.03;;;6.73;94.75
62725;BME280;49026;52.600;4.694;2023-02-02T07:54:04;102226.00;;;6.72;95.18
62725;BME280;49026;52.600;4.694;2023-02-02T07:56:29;102226.88;;;6.73;94.63
62725;BME280;49026;52.600;4.694;2023-02-02T07:58:55;102226.00;;;6.71;94.48
62725;BME280;49026;52.600;4.694;2023-02-02T08:01:21;102239.94;;;6.73;94.62
62725;BME280;49026;52.600;4.694;2023-02-02T08:03:48;102238.19;;;6.73;94.75
62725;BME280;49026;52.600;4.694;2023-02-02T08:06:31;102238.19;;;6.75;95.03
62725;BME280;49026;52.600;4.694;2023-02-02T08:09:01;102240.78;;;6.76;95.19
62725;BME280;49026;52.600;4.694;2023-02-02T08:11:31;102245.16;;;6.76;94.54
62725;BME280;49026;52.600;4.694;2023-02-02T08:13:58;102245.16;;;6.77;94.73
62725;BME280;49026;52.600;4.694;2023-02-02T08:16:24;102251.25;;;6.81;94.13
62725;BME280;49026;52.600;4.694;2023-02-02T08:18:51;102244.25;;;6.84;94.89
62725;BME280;49026;52.600;4.694;2023-02-02T08:21:19;102252.09;;;6.86;95.03
62725;BME280;49026;52.600;4.694;2023-02-02T08:23:45;102254.72;;;6.88;94.30
62725;BME280;49026;52.600;4.694;2023-02-02T08:26:15;102261.69;;;6.89;93.95
62725;BME280;49026;52.600;4.694;2023-02-02T08:28:43;102262.56;;;6.91;94.76
62725;BME280;49026;52.600;4.694;2023-02-02T08:31:11;102267.78;;;6.91;94.65
62725;BME280;49026;52.600;4.694;2023-02-02T08:33:37;102263.41;;;6.93;94.52
62725;BME280;49026;52.600;4.694;2023-02-02T08:36:02;102270.38;;;6.94;94.15
62725;BME280;49026;52.600;4.694;2023-02-02T08:38:28;102277.34;;;6.95;94.66
62725;BME280;49026;52.600;4.694;2023-02-02T08:40:54;102275.63;;;6.97;94.75
62725;BME280;49026;52.600;4.694;2023-02-02T08:43:19;102275.56;;;7.00;94.60
62725;BME280;49026;52.600;4.694;2023-02-02T08:45:45;102270.34;;;7.04;94.50
62725;BME280;49026;52.600;4.694;2023-02-02T08:48:13;102277.31;;;7.09;93.96
62725;BME280;49026;52.600;4.694;2023-02-02T08:50:41;102284.28;;;7.13;94.74
62725;BME280;49026;52.600;4.694;2023-02-02T08:53:09;102285.13;;;7.16;93.96
62725;BME280;49026;52.600;4.694;2023-02-02T08:55:34;102275.56;;;7.18;94.55
62725;BME280;49026;52.600;4.694;2023-02-02T08:58:02;102274.66;;;7.21;94.16
62725;BME280;49026;52.600;4.694;2023-02-02T09:00:27;102275.53;;;7.21;94.77
62725;BME280;49026;52.600;4.694;2023-02-02T09:02:52;102276.41;;;7.20;94.59
62725;BME280;49026;52.600;4.694;2023-02-02T09:05:28;102273.81;;;7.20;94.59
62725;BME280;49026;52.600;4.694;2023-02-02T09:07:53;102291.25;;;7.17;94.18
62725;BME280;49026;52.600;4.694;2023-02-02T09:10:18;102294.72;;;7.11;94.38
62725;BME280;49026;52.600;4.694;2023-02-02T09:12:44;102298.25;;;7.09;94.01
62725;BME280;49026;52.600;4.694;2023-02-02T09:15:09;102309.56;;;7.08;94.04
62725;BME280;49026;52.600;4.694;2023-02-02T09:17:36;102300.84;;;7.05;94.15
62725;BME280;49026;52.600;4.694;2023-02-02T09:20:01;102304.31;;;7.08;94.17
62725;BME280;49026;52.600;4.694;2023-02-02T09:22:29;102304.31;;;7.11;94.37
62725;BME280;49026;52.600;4.694;2023-02-02T09:24:57;102307.78;;;7.17;94.34
62725;BME280;49026;52.600;4.694;2023-02-02T09:27:22;102299.03;;;7.26;94.23
62725;BME280;49026;52.600;4.694;2023-02-02T09:29:47;102299.03;;;7.35;94.13
62725;BME280;49026;52.600;4.694;2023-02-02T09:32:15;102301.59;;;7.45;94.54
62725;BME280;49026;52.600;4.694;2023-02-02T09:34:41;102298.13;;;7.49;94.59
62725;BME280;49026;52.600;4.694;2023-02-02T09:37:06;102305.97;;;7.49;94.04
62725;BME280;49026;52.600;4.694;2023-02-02T09:39:33;102305.97;;;7.42;93.88
62725;BME280;49026;52.600;4.694;2023-02-02T09:45:06;102321.72;;;7.30;93.73
62725;BME280;49026;52.600;4.694;2023-02-02T09:47:45;102320.81;;;7.28;94.03
62725;BME280;49026;52.600;4.694;2023-02-02T09:53:02;102336.50;;;7.33;94.61
62725;BME280;49026;52.600;4.694;2023-02-02T09:55:39;102324.28;;;7.33;94.34
62725;BME280;49026;52.600;4.694;2023-02-02T10:01:13;102325.19;;;7.35;94.15
62725;BME280;49026;52.600;4.694;2023-02-02T10:04:00;102329.50;;;7.39;94.59
62725;BME280;49026;52.600;4.694;2023-02-02T10:09:22;102334.69;;;7.53;94.51
62725;BME280;49026;52.600;4.694;2023-02-02T10:17:01;102341.59;;;7.79;93.99
62725;BME280;49026;52.600;4.694;2023-02-02T10:19:32;102342.44;;;7.79;94.05
62725;BME280;49026;52.600;4.694;2023-02-02T10:22:14;102337.22;;;7.79;93.33
62725;BME280;49026;52.600;4.694;2023-02-02T10:24:42;102333.72;;;7.79;94.19
62725;BME280;49026;52.600;4.694;2023-02-02T10:27:13;102345.97;;;7.78;93.71
62725;BME280;49026;52.600;4.694;2023-02-02T10:38:07;102344.22;;;7.77;93.37
62725;BME280;49026;52.600;4.694;2023-02-02T10:46:16;102349.38;;;7.90;93.41
62725;BME280;49026;52.600;4.694;2023-02-02T10:48:45;102344.13;;;7.93;93.12
62725;BME280;49026;52.600;4.694;2023-02-02T10:51:25;102357.22;;;7.94;92.76
62725;BME280;49026;52.600;4.694;2023-02-02T10:53:52;102353.72;;;7.97;93.40
62725;BME280;49026;52.600;4.694;2023-02-02T10:56:25;102359.81;;;7.96;93.04
62725;BME280;49026;52.600;4.694;2023-02-02T10:59:05;102357.22;;;7.91;92.75
62725;BME280;49026;52.600;4.694;2023-02-02T11:01:31;102360.75;;;7.89;93.64
62725;BME280;49026;52.600;4.694;2023-02-02T11:03:56;102361.59;;;7.88;93.08
62725;BME280;49026;52.600;4.694;2023-02-02T11:06:40;102356.38;;;7.88;93.32
62725;BME280;49026;52.600;4.694;2023-02-02T11:09:23;102353.75;;;7.89;92.51
62725;BME280;49026;52.600;4.694;2023-02-02T11:12:43;102363.34;;;7.92;92.78
62725;BME280;49026;52.600;4.694;2023-02-02T11:14:55;102365.06;;;7.96;93.32
62725;BME280;49026;52.600;4.694;2023-02-02T11:17:25;102373.78;;;7.96;92.37
62725;BME280;49026;52.600;4.694;2023-02-02T11:19:51;102372.03;;;7.98;92.73
62725;BME280;49026;52.600;4.694;2023-02-02T11:22:48;102366.75;;;8.03;92.62
62725;BME280;49026;52.600;4.694;2023-02-02T11:25:33;102351.03;;;8.08;92.60
62725;BME280;49026;52.600;4.694;2023-02-02T11:28:18;102350.16;;;8.10;92.47
62725;BME280;49026;52.600;4.694;2023-02-02T11:30:47;102359.72;;;8.13;92.73
62725;BME280;49026;52.600;4.694;2023-02-02T11:33:30;102356.25;;;8.15;92.80
62725;BME280;49026;52.600;4.694;2023-02-02T11:35:59;102364.97;;;8.14;92.63
62725;BME280;49026;52.600;4.694;2023-02-02T11:38:28;102360.56;;;8.20;92.96
62725;BME280;49026;52.600;4.694;2023-02-02T11:41:04;102358.84;;;8.19;93.08
62725;BME280;49026;52.600;4.694;2023-02-02T11:43:52;102350.94;;;8.22;93.38
62725;BME280;49026;52.600;4.694;2023-02-02T11:46:24;102347.44;;;8.24;93.15
62725;BME280;49026;52.600;4.694;2023-02-02T11:49:10;102337.84;;;8.23;92.92
62725;BME280;49026;52.600;4.694;2023-02-02T11:51:37;102359.69;;;8.24;92.72
62725;BME280;49026;52.600;4.694;2023-02-02T11:54:17;102350.94;;;8.25;93.36
62725;BME280;49026;52.600;4.694;2023-02-02T11:56:50;102348.31;;;8.25;93.59
62725;BME280;49026;52.600;4.694;2023-02-02T11:59:38;102350.91;;;8.28;93.45
62725;BME280;49026;52.600;4.694;2023-02-02T12:04:51;102340.47;;;8.25;93.17
62725;BME280;49026;52.600;4.694;2023-02-02T12:09:46;102334.38;;;8.23;93.59
62725;BME280;49026;52.600;4.694;2023-02-02T12:12:34;102344.84;;;8.18;93.41
62725;BME280;49026;52.600;4.694;2023-02-02T12:15:26;102337.84;;;8.23;93.38
62725;BME280;49026;52.600;4.694;2023-02-02T12:20:57;102341.38;;;8.16;93.60
62725;BME280;49026;52.600;4.694;2023-02-02T12:26:04;102347.53;;;8.10;93.59
62725;BME280;49026;52.600;4.694;2023-02-02T12:31:17;102350.19;;;8.06;93.95
62725;BME280;49026;52.600;4.694;2023-02-02T12:37:19;102342.31;;;8.07;93.91
62725;BME280;49026;52.600;4.694;2023-02-02T12:40:25;102340.56;;;8.09;94.08
62725;BME280;49026;52.600;4.694;2023-02-02T12:46:00;102340.56;;;8.09;93.61
62725;BME280;49026;52.600;4.694;2023-02-02T12:48:44;102344.94;;;8.06;93.53
62725;BME280;49026;52.600;4.694;2023-02-02T12:54:33;102347.59;;;7.98;93.20
62725;BME280;49026;52.600;4.694;2023-02-02T13:02:56;102349.38;;;7.87;93.81
62725;BME280;49026;52.600;4.694;2023-02-02T13:05:57;102343.28;;;7.85;93.74
62725;BME280;49026;52.600;4.694;2023-02-02T13:08:30;102346.81;;;7.85;93.67
62725;BME280;49026;52.600;4.694;2023-02-02T13:11:07;102350.28;;;7.79;93.08
62725;BME280;49026;52.600;4.694;2023-02-02T13:13:55;102342.47;;;7.73;93.02
62725;BME280;49026;52.600;4.694;2023-02-02T13:16:22;102345.13;;;7.64;92.93
62725;BME280;49026;52.600;4.694;2023-02-02T13:18:55;102347.75;;;7.56;93.11
62725;BME280;49026;52.600;4.694;2023-02-02T13:21:23;102351.28;;;7.51;93.26
62725;BME280;49026;52.600;4.694;2023-02-02T13:23:55;102343.44;;;7.45;93.20
62725;BME280;49026;52.600;4.694;2023-02-02T13:26:26;102340.88;;;7.35;92.89
62725;BME280;49026;52.600;4.694;2023-02-02T13:31:45;102342.63;;;7.19;93.67
62725;BME280;49026;52.600;4.694;2023-02-02T13:39:35;102334.84;;;7.05;93.57
62725;BME280;49026;52.600;4.694;2023-02-02T13:42:05;102339.19;;;7.03;93.83
62725;BME280;49026;52.600;4.694;2023-02-02T13:44:45;102335.69;;;7.00;93.20
62725;BME280;49026;52.600;4.694;2023-02-02T13:47:33;102331.34;;;6.94;93.51
62725;BME280;49026;52.600;4.694;2023-02-02T13:50:09;102341.81;;;6.93;93.90
62725;BME280;49026;52.600;4.694;2023-02-02T13:55:57;102339.19;;;6.94;93.69
62725;BME280;49026;52.600;4.694;2023-02-02T14:01:01;102340.06;;;6.98;93.69
62725;BME280;49026;52.600;4.694;2023-02-02T14:03:38;102335.72;;;6.95;93.97
62725;BME280;49026;52.600;4.694;2023-02-02T14:06:13;102336.59;;;6.94;93.58
62725;BME280;49026;52.600;4.694;2023-02-02T14:08:54;102338.34;;;6.92;93.67
62725;BME280;49026;52.600;4.694;2023-02-02T14:11:24;102331.34;;;6.90;93.73
62725;BME280;49026;52.600;4.694;2023-02-02T14:13:53;102335.72;;;6.92;94.19
62725;BME280;49026;52.600;4.694;2023-02-02T14:19:05;102347.94;;;6.90;94.33
62725;BME280;49026;52.600;4.694;2023-02-02T14:26:54;102344.41;;;6.94;94.20
62725;BME280;49026;52.600;4.694;2023-02-02T14:31:57;102349.66;;;6.97;94.77
62725;BME280;49026;52.600;4.694;2023-02-02T14:34:39;102348.78;;;6.98;94.04
62725;BME280;49026;52.600;4.694;2023-02-02T14:45:42;102348.75;;;7.06;95.32
62725;BME280;49026;52.600;4.694;2023-02-02T14:50:49;102373.16;;;7.17;95.51
62725;BME280;49026;52.600;4.694;2023-02-02T14:55:56;102358.31;;;7.18;94.47
62725;BME280;49026;52.600;4.694;2023-02-02T15:03:35;102367.91;;;7.14;94.87
62725;BME280;49026;52.600;4.694;2023-02-02T15:06:11;102369.69;;;7.09;94.24
62725;BME280;49026;52.600;4.694;2023-02-02T15:08:37;102367.06;;;7.08;94.47
62725;BME280;49026;52.600;4.694;2023-02-02T15:11:05;102365.31;;;7.07;94.61
62725;BME280;49026;52.600;4.694;2023-02-02T15:13:58;102372.28;;;7.08;94.82
62725;BME280;49026;52.600;4.694;2023-02-02T15:16:30;102371.44;;;7.05;95.24